Hurlingham, Argentina
Current Conditions -  °F | °C
As of 2:00 AM on Saturday 20 Dec 2014 (Local Time) from SADF Reporting Station
Clear Clear  
Wind Chill: 75°   Ceiling: Unl
Heat Index: 75°   Visibility: 6mi
Dew Point: 59°   Wind: 8mph
Humidity: 57%   Direction: 340°NNW
Pressure: 29.53"   Gusts: NA
Location:  34.6°S, 58.63°W
Report Text: SADF 200500Z 34007KT CAVOK 24/15 Q1000
Loading
Personal Weather Stations






























Interactive Weather Map New forecast layout! Learn more

10-Day Weather Forecast

Advertisements
Track Severe Weather on mobile